Nearby METAR Reports

 

KSNK - Snyder/Winston, Texas, USA
Distance from station: SSE 25mi, 41km
Updated: Fri, 14-May-2021 12:55am CDT
Clear
Clear
 Wind from ESE
Wind: ESE 6 mph , 9 km/h
Temperature: 59°F , 15°C
Dew Point: 52°F , 11°C
Humidity: 77%
Barometer: 30.22 inHg , 1023.4 hPa
Clouds: Clear
Visibility: 10 miles , 16 km
2021/05/14 05:55 KSNK 140555Z AUTO 12005KT 10SM CLR 15/11 A3022 RMK AO2 LTG DSNT N T01450110
KSWW - Sweetwater, Texas, USA
Distance from station: SE 56mi, 90km
Updated: Fri, 14-May-2021 12:55am CDT
Clear
Clear
 Wind from SE
Wind: SE 10 mph , 17 km/h
Temperature: 59°F , 15°C
Dew Point: 54°F , 12°C
Humidity: 82%
Barometer: 30.24 inHg , 1024 hPa
Clouds: Clear
Visibility: 10 miles , 16 km
2021/05/14 05:55 KSWW 140555Z AUTO 13009KT 10SM CLR 15/12 A3024 RMK AO2 LTG DSNT N T01500116 10223 20145 402300097
 
KLBB - Lubbock, Texas, USA
Distance from station: NW 59mi, 94km
Updated: Fri, 14-May-2021 12:53am CDT
Clear
Clear
 Wind from SE
Wind: SE 18 mph , 30 km/h
Temperature: 57°F , 14°C
Dew Point: 48°F , 9°C
Humidity: 72%
Barometer: 30.19 inHg , 1022.4 hPa
Clouds: Clear
Visibility: 10 miles , 16 km
2021/05/14 05:53 KLBB 140553Z 14016KT 10SM CLR 14/09 A3019 RMK AO2 SLP191 T01390089 10233 20139 402390083 58000
KPVW - Plainview, Texas, USA
Distance from station: NNW 85mi, 137km
Updated: Fri, 14-May-2021 12:55am CDT
Clear
Clear
 Wind from SSE
Wind: SSE 13 mph , 20 km/h
Temperature: 54°F , 12°C
Dew Point: 48°F , 9°C
Humidity: 82%
Barometer: 30.18 inHg , 1022 hPa
Clouds: Clear
Visibility: 10 miles , 16 km
2021/05/14 05:55 KPVW 140555Z AUTO 16011KT 10SM CLR 12/09 A3018 RMK AO2 LTG DSNT N T01200086 10220 20120 402330059
 
KDYS - Dyess Afb/Abilen, Texas, USA
Distance from station: ESE 88mi, 141km
Updated: Fri, 14-May-2021 12:56am CDT
Clear
Clear
 Wind from ESE
Wind: ESE 6 mph , 9 km/h
Temperature: 57°F , 14°C
Dew Point: 50°F , 10°C
Humidity: 77%
Barometer: 30.22 inHg , 1023.4 hPa
Clouds: Clear
Visibility: 10 miles , 16 km
2021/05/14 05:56 KDYS 140556Z AUTO 11005KT 10SM CLR 14/10 A3022 RMK AO2 SLP212 T01430103 10205 20143 402110137 58004
KGNC - Seminole, Texas, USA
Distance from station: WSW 89mi, 144km
Updated: Fri, 14-May-2021 12:55am CDT
Clear
Clear
 Wind from SE
Wind: SE 10 mph , 17 km/h
Temperature: 63°F , 17°C
Dew Point: 52°F , 11°C
Humidity: 68%
Barometer: 30.23 inHg , 1023.7 hPa
Clouds: Clear
Visibility: 10 miles , 16 km
2021/05/14 05:55 KGNC 140555Z AUTO 13009KT 10SM CLR 17/11 A3023 RMK AO2 T01650109 10246 20165 402500085
 
KE11 - Andrews, Texas, USA
Distance from station: WSW 93mi, 149km
Updated: Fri, 14-May-2021 12:55am CDT
Clear
Clear
 Wind from SE
Wind: SE 13 mph , 20 km/h
Temperature: 64°F , 18°C
Dew Point: 50°F , 10°C
Humidity: 60%
Barometer: 30.19 inHg , 1022.4 hPa
Clouds: Clear
Visibility: 10 miles , 16 km
2021/05/14 05:55 KE11 140555Z AUTO 14011KT 10SM CLR 18/10 A3019 RMK AO2 T01750102 10245 20175
KABI - Abilene, Texas, USA
Distance from station: ESE 96mi, 154km
Updated: Fri, 14-May-2021 12:52am CDT
Clear
Clear
 Wind from ESE
Wind: ESE 8 mph , 13 km/h
Temperature: 59°F , 15°C
Dew Point: 54°F , 12°C
Humidity: 82%
Barometer: 30.22 inHg , 1023.4 hPa
Clouds: Clear
Visibility: 10 miles , 16 km
2021/05/14 05:52 KABI 140552Z 12007KT 10SM CLR 15/12 A3022 RMK AO2 SLP221 T01500122 10206 20144 402170139 58003
 
KMAF - Midland, Texas, USA
Distance from station: SW 96mi, 154km
Updated: Fri, 14-May-2021 12:53am CDT
Clear
Clear
 Wind from SE
Wind: SE 16 mph , 26 km/h
Temperature: 63°F , 17°C
Dew Point: 54°F , 12°C
Humidity: 73%
Barometer: 30.18 inHg , 1022 hPa
Clouds: Clear
Visibility: 10 miles , 16 km
2021/05/14 05:53 KMAF 140553Z 13014KT 10SM CLR 17/12 A3018 RMK AO2 SLP189 T01670117 10244 20167 402500111 50006
KCDS - Childress, Texas, USA
Distance from station: NNE 110mi, 177km
Updated: Fri, 14-May-2021 12:53am CDT
Clear
Clear
 Wind from SSE
Wind: SSE 13 mph , 20 km/h
Temperature: 57°F , 14°C
Dew Point: 50°F , 10°C
Humidity: 77%
Barometer: 30.21 inHg , 1023 hPa
Clouds: Clear
Visibility: 10 miles , 16 km
2021/05/14 05:53 KCDS 140553Z AUTO 15011KT 10SM CLR 14/10 A3021 RMK AO2 SLP215 T01390100 10228 20139 402390078 50002
 
KSJT - San Angelo, Texas, USA
Distance from station: SSE 121mi, 194km
Updated: Fri, 14-May-2021 12:51am CDT
Mostly cloudy
Mostly cloudy
 Wind from calm
Wind: Calm
Temperature: 61°F , 16°C
Dew Point: 55°F , 13°C
Humidity: 83%
Barometer: 30.21 inHg , 1023 hPa
Clouds: Mostly cloudy
Visibility: 10 miles , 16 km
Cloud details: Mostly cloudy 4100 ft
2021/05/14 05:51 KSJT 140551Z AUTO 00000KT 10SM BKN041 16/13 A3021 RMK AO2 SLP220 T01560128 10228 20150 402390133 50005 $
KHOB - Hobbs/Lea Co., New Mexico, USA
Distance from station: WSW 122mi, 196km
Updated: Fri, 14-May-2021 12:55am CDT
Clear
Clear
 Wind from SE
Wind: SE 12 mph , 19 km/h
Temperature: 63°F , 17°C
Dew Point: 48°F , 9°C
Humidity: 59%
Barometer: 30.18 inHg , 1022 hPa
Clouds: Clear
Visibility: 10 miles , 16 km
2021/05/14 05:55 KHOB 140555Z AUTO 13010KT 10SM CLR 17/09 A3018 RMK AO2
 
KCOM - Coleman Muni, Texas, USA
Distance from station: SE 131mi, 212km
Updated: Fri, 14-May-2021 12:55am CDT
Mostly cloudy
Mostly cloudy
 Wind from ESE
Wind: ESE 3 mph , 6 km/h
Temperature: 57°F , 14°C
Dew Point: 54°F , 12°C
Humidity: 88%
Barometer: 30.23 inHg , 1023.7 hPa
Clouds: Mostly cloudy
Visibility: 10 miles , 16 km
Cloud details: Mostly cloudy 3500 ft
2021/05/14 05:55 KCOM 140555Z AUTO 12003KT 10SM BKN035 14/12 A3023 RMK AO2 T01360122 10205 20136 402140135
KBKD - Breckenridge, Texas, USA
Distance from station: E 134mi, 215km
Updated: Fri, 14-May-2021 12:55am CDT
Overcast
Overcast
 Wind from ESE
Wind: ESE 5 mph , 7 km/h
Temperature: 64°F , 18°C
Dew Point: 55°F , 13°C
Humidity: 73%
Barometer: 30.23 inHg , 1023.7 hPa
Clouds: Overcast
Visibility: 7 miles , 11 km
Cloud details: Overcast 4800 ft
2021/05/14 05:55 KBKD 140555Z AUTO 12004KT 7SM OVC048 18/13 A3023 RMK AO2 T01770125 10218 20177 402400122
 
KF05 - Vernon Wilbarger, Texas, USA
Distance from station: NE 137mi, 220km
Updated: Fri, 14-May-2021 12:55am CDT
Clear
Clear
 Wind from SE
Wind: SE 5 mph , 7 km/h
Temperature: 57°F , 14°C
Dew Point: 55°F , 13°C
Humidity: 94%
Barometer: 30.23 inHg , 1023.7 hPa
Clouds: Clear
Visibility: 10 miles , 16 km
2021/05/14 05:55 KF05 140555Z AUTO 13004KT 10SM CLR 14/13 A3023 RMK AO2 T01440125 10222 20142 402280097